sensor_id;sensor_type;location;lat;lon;timestamp;temperature;humidity
16827;DHT22;8530;49.540;8.576;2023-03-01T00:01:27;0.80;48.50
16827;DHT22;8530;49.540;8.576;2023-03-01T00:03:55;0.80;48.60
16827;DHT22;8530;49.540;8.576;2023-03-01T00:06:22;0.70;48.60
16827;DHT22;8530;49.540;8.576;2023-03-01T00:08:50;0.70;48.70
16827;DHT22;8530;49.540;8.576;2023-03-01T00:11:18;0.70;48.80
16827;DHT22;8530;49.540;8.576;2023-03-01T00:13:46;0.70;48.90
16827;DHT22;8530;49.540;8.576;2023-03-01T00:16:15;0.70;48.90
16827;DHT22;8530;49.540;8.576;2023-03-01T00:18:42;0.70;49.00
16827;DHT22;8530;49.540;8.576;2023-03-01T00:21:10;0.70;49.10
16827;DHT22;8530;49.540;8.576;2023-03-01T00:23:38;0.70;49.20
16827;DHT22;8530;49.540;8.576;2023-03-01T00:26:06;0.80;49.30
16827;DHT22;8530;49.540;8.576;2023-03-01T00:28:33;0.80;49.40
16827;DHT22;8530;49.540;8.576;2023-03-01T00:31:03;0.80;49.40
16827;DHT22;8530;49.540;8.576;2023-03-01T00:33:30;0.80;49.40
16827;DHT22;8530;49.540;8.576;2023-03-01T00:35:58;0.80;49.50
16827;DHT22;8530;49.540;8.576;2023-03-01T00:38:27;0.80;49.60
16827;DHT22;8530;49.540;8.576;2023-03-01T00:40:54;0.80;49.70
16827;DHT22;8530;49.540;8.576;2023-03-01T00:43:21;0.80;49.70
16827;DHT22;8530;49.540;8.576;2023-03-01T00:45:47;0.80;49.90
16827;DHT22;8530;49.540;8.576;2023-03-01T00:48:14;0.90;50.00
16827;DHT22;8530;49.540;8.576;2023-03-01T00:50:41;0.80;49.90
16827;DHT22;8530;49.540;8.576;2023-03-01T00:53:08;0.80;50.00
16827;DHT22;8530;49.540;8.576;2023-03-01T00:55:36;0.80;50.10
16827;DHT22;8530;49.540;8.576;2023-03-01T00:58:02;0.80;50.20
16827;DHT22;8530;49.540;8.576;2023-03-01T01:00:29;0.80;50.20
16827;DHT22;8530;49.540;8.576;2023-03-01T01:02:56;0.80;50.30
16827;DHT22;8530;49.540;8.576;2023-03-01T01:05:22;0.70;50.30
16827;DHT22;8530;49.540;8.576;2023-03-01T01:07:49;0.80;50.60
16827;DHT22;8530;49.540;8.576;2023-03-01T01:10:16;0.80;50.70
16827;DHT22;8530;49.540;8.576;2023-03-01T01:12:45;0.90;50.80
16827;DHT22;8530;49.540;8.576;2023-03-01T01:15:12;0.90;50.90
16827;DHT22;8530;49.540;8.576;2023-03-01T01:17:42;1.00;50.90
16827;DHT22;8530;49.540;8.576;2023-03-01T01:20:09;1.00;50.80
16827;DHT22;8530;49.540;8.576;2023-03-01T01:22:36;1.00;51.00
16827;DHT22;8530;49.540;8.576;2023-03-01T01:25:03;1.00;51.00
16827;DHT22;8530;49.540;8.576;2023-03-01T01:27:30;1.10;51.10
16827;DHT22;8530;49.540;8.576;2023-03-01T01:29:58;1.10;51.10
16827;DHT22;8530;49.540;8.576;2023-03-01T01:32:25;1.00;51.10
16827;DHT22;8530;49.540;8.576;2023-03-01T01:34:52;1.00;51.10
16827;DHT22;8530;49.540;8.576;2023-03-01T01:37:18;1.10;51.30
16827;DHT22;8530;49.540;8.576;2023-03-01T01:39:45;1.00;51.40
16827;DHT22;8530;49.540;8.576;2023-03-01T01:42:15;1.00;51.50
16827;DHT22;8530;49.540;8.576;2023-03-01T01:44:44;1.00;51.90
16827;DHT22;8530;49.540;8.576;2023-03-01T01:47:15;0.90;51.40
16827;DHT22;8530;49.540;8.576;2023-03-01T01:49:47;0.90;51.50
16827;DHT22;8530;49.540;8.576;2023-03-01T01:52:18;0.90;51.60
16827;DHT22;8530;49.540;8.576;2023-03-01T01:54:50;0.80;51.50
16827;DHT22;8530;49.540;8.576;2023-03-01T01:57:22;0.80;51.70
16827;DHT22;8530;49.540;8.576;2023-03-01T01:59:53;0.80;51.80
16827;DHT22;8530;49.540;8.576;2023-03-01T02:02:21;0.80;51.80
16827;DHT22;8530;49.540;8.576;2023-03-01T02:04:50;0.70;51.80
16827;DHT22;8530;49.540;8.576;2023-03-01T02:07:23;0.70;52.00
16827;DHT22;8530;49.540;8.576;2023-03-01T02:09:52;0.80;52.20
16827;DHT22;8530;49.540;8.576;2023-03-01T02:12:21;0.80;52.20
16827;DHT22;8530;49.540;8.576;2023-03-01T02:14:49;0.80;52.20
16827;DHT22;8530;49.540;8.576;2023-03-01T02:17:17;0.80;52.30
16827;DHT22;8530;49.540;8.576;2023-03-01T02:19:54;0.80;52.30
16827;DHT22;8530;49.540;8.576;2023-03-01T02:22:25;0.80;52.40
16827;DHT22;8530;49.540;8.576;2023-03-01T02:25:02;0.80;52.50
16827;DHT22;8530;49.540;8.576;2023-03-01T02:27:38;0.80;52.50
16827;DHT22;8530;49.540;8.576;2023-03-01T02:30:09;0.80;52.50
16827;DHT22;8530;49.540;8.576;2023-03-01T02:32:38;0.70;52.50
16827;DHT22;8530;49.540;8.576;2023-03-01T02:35:09;0.70;52.50
16827;DHT22;8530;49.540;8.576;2023-03-01T02:37:37;0.60;52.60
16827;DHT22;8530;49.540;8.576;2023-03-01T02:40:07;0.60;52.60
16827;DHT22;8530;49.540;8.576;2023-03-01T02:42:42;0.50;52.70
16827;DHT22;8530;49.540;8.576;2023-03-01T02:45:13;0.50;52.80
16827;DHT22;8530;49.540;8.576;2023-03-01T02:47:40;0.40;52.90
16827;DHT22;8530;49.540;8.576;2023-03-01T02:50:19;0.40;53.50
16827;DHT22;8530;49.540;8.576;2023-03-01T02:52:55;0.40;53.00
16827;DHT22;8530;49.540;8.576;2023-03-01T02:55:23;0.30;53.00
16827;DHT22;8530;49.540;8.576;2023-03-01T02:57:50;0.30;53.00
16827;DHT22;8530;49.540;8.576;2023-03-01T03:00:20;0.30;53.10
16827;DHT22;8530;49.540;8.576;2023-03-01T03:02:48;0.30;53.20
16827;DHT22;8530;49.540;8.576;2023-03-01T03:05:17;0.30;53.30
16827;DHT22;8530;49.540;8.576;2023-03-01T03:07:45;0.30;53.30
16827;DHT22;8530;49.540;8.576;2023-03-01T03:10:14;0.30;53.40
16827;DHT22;8530;49.540;8.576;2023-03-01T03:12:42;0.30;53.40
16827;DHT22;8530;49.540;8.576;2023-03-01T03:15:10;0.20;53.40
16827;DHT22;8530;49.540;8.576;2023-03-01T03:17:40;0.20;53.50
16827;DHT22;8530;49.540;8.576;2023-03-01T03:20:10;0.20;53.50
16827;DHT22;8530;49.540;8.576;2023-03-01T03:22:37;0.20;53.60
16827;DHT22;8530;49.540;8.576;2023-03-01T03:25:05;0.20;53.70
16827;DHT22;8530;49.540;8.576;2023-03-01T03:27:35;0.10;53.70
16827;DHT22;8530;49.540;8.576;2023-03-01T03:30:04;0.10;53.80
16827;DHT22;8530;49.540;8.576;2023-03-01T03:32:34;0.10;53.90
16827;DHT22;8530;49.540;8.576;2023-03-01T03:35:02;0.00;53.90
16827;DHT22;8530;49.540;8.576;2023-03-01T03:37:34;0.00;54.00
16827;DHT22;8530;49.540;8.576;2023-03-01T03:40:18;0.00;54.20
16827;DHT22;8530;49.540;8.576;2023-03-01T03:42:45;-0.10;54.10
16827;DHT22;8530;49.540;8.576;2023-03-01T03:45:12;-0.10;54.20
16827;DHT22;8530;49.540;8.576;2023-03-01T03:47:38;-0.20;54.80
16827;DHT22;8530;49.540;8.576;2023-03-01T03:50:07;-0.20;54.40
16827;DHT22;8530;49.540;8.576;2023-03-01T03:52:34;-0.20;54.50
16827;DHT22;8530;49.540;8.576;2023-03-01T03:55:01;-0.30;54.40
16827;DHT22;8530;49.540;8.576;2023-03-01T03:57:28;-0.30;54.60
16827;DHT22;8530;49.540;8.576;2023-03-01T03:59:54;-0.40;54.60
16827;DHT22;8530;49.540;8.576;2023-03-01T04:02:21;-0.40;54.70
16827;DHT22;8530;49.540;8.576;2023-03-01T04:04:48;-0.40;54.80
16827;DHT22;8530;49.540;8.576;2023-03-01T04:07:17;-0.40;54.90
16827;DHT22;8530;49.540;8.576;2023-03-01T04:09:44;-0.50;55.00
16827;DHT22;8530;49.540;8.576;2023-03-01T04:12:10;-0.60;54.90
16827;DHT22;8530;49.540;8.576;2023-03-01T04:14:37;-0.60;55.10
16827;DHT22;8530;49.540;8.576;2023-03-01T04:17:04;-0.60;55.20
16827;DHT22;8530;49.540;8.576;2023-03-01T04:19:30;-0.60;55.30
16827;DHT22;8530;49.540;8.576;2023-03-01T04:22:01;-0.60;55.50
16827;DHT22;8530;49.540;8.576;2023-03-01T04:24:34;-0.60;55.70
16827;DHT22;8530;49.540;8.576;2023-03-01T04:27:01;-0.60;55.80
16827;DHT22;8530;49.540;8.576;2023-03-01T04:29:28;-0.60;56.00
16827;DHT22;8530;49.540;8.576;2023-03-01T04:31:54;-0.60;56.20
16827;DHT22;8530;49.540;8.576;2023-03-01T04:34:21;-0.50;56.40
16827;DHT22;8530;49.540;8.576;2023-03-01T04:36:48;-0.50;56.50
16827;DHT22;8530;49.540;8.576;2023-03-01T04:39:14;-0.50;56.70
16827;DHT22;8530;49.540;8.576;2023-03-01T04:41:42;-0.50;56.80
16827;DHT22;8530;49.540;8.576;2023-03-01T04:44:09;-0.40;57.10
16827;DHT22;8530;49.540;8.576;2023-03-01T04:46:36;-0.40;57.20
16827;DHT22;8530;49.540;8.576;2023-03-01T04:49:03;-0.30;57.50
16827;DHT22;8530;49.540;8.576;2023-03-01T04:51:30;-0.20;57.60
16827;DHT22;8530;49.540;8.576;2023-03-01T04:53:57;-0.20;57.70
16827;DHT22;8530;49.540;8.576;2023-03-01T04:56:25;-0.10;57.80
16827;DHT22;8530;49.540;8.576;2023-03-01T04:58:54;0.00;58.10
16827;DHT22;8530;49.540;8.576;2023-03-01T05:01:21;0.00;58.20
16827;DHT22;8530;49.540;8.576;2023-03-01T05:03:49;0.10;58.20
16827;DHT22;8530;49.540;8.576;2023-03-01T05:06:20;0.10;58.30
16827;DHT22;8530;49.540;8.576;2023-03-01T05:08:46;0.20;58.50
16827;DHT22;8530;49.540;8.576;2023-03-01T05:11:13;0.20;58.50
16827;DHT22;8530;49.540;8.576;2023-03-01T05:13:40;0.30;58.70
16827;DHT22;8530;49.540;8.576;2023-03-01T05:16:09;0.30;58.70
16827;DHT22;8530;49.540;8.576;2023-03-01T05:18:37;0.40;58.90
16827;DHT22;8530;49.540;8.576;2023-03-01T05:21:06;0.40;58.90
16827;DHT22;8530;49.540;8.576;2023-03-01T05:23:34;0.40;58.90
16827;DHT22;8530;49.540;8.576;2023-03-01T05:26:02;0.40;59.00
16827;DHT22;8530;49.540;8.576;2023-03-01T05:28:29;0.50;59.20
16827;DHT22;8530;49.540;8.576;2023-03-01T05:30:56;0.50;59.30
16827;DHT22;8530;49.540;8.576;2023-03-01T05:33:25;0.60;59.30
16827;DHT22;8530;49.540;8.576;2023-03-01T05:35:53;0.60;59.30
16827;DHT22;8530;49.540;8.576;2023-03-01T05:38:20;0.60;59.40
16827;DHT22;8530;49.540;8.576;2023-03-01T05:40:48;0.70;59.50
16827;DHT22;8530;49.540;8.576;2023-03-01T05:43:16;0.70;59.50
16827;DHT22;8530;49.540;8.576;2023-03-01T05:45:43;0.70;59.60
16827;DHT22;8530;49.540;8.576;2023-03-01T05:48:11;0.70;59.60
16827;DHT22;8530;49.540;8.576;2023-03-01T05:50:40;0.80;59.70
16827;DHT22;8530;49.540;8.576;2023-03-01T05:53:10;0.80;59.70
16827;DHT22;8530;49.540;8.576;2023-03-01T05:55:37;0.80;59.70
16827;DHT22;8530;49.540;8.576;2023-03-01T05:58:06;0.90;59.80
16827;DHT22;8530;49.540;8.576;2023-03-01T06:00:33;0.90;59.80
16827;DHT22;8530;49.540;8.576;2023-03-01T06:03:00;0.90;59.80
16827;DHT22;8530;49.540;8.576;2023-03-01T06:05:28;1.00;59.80
16827;DHT22;8530;49.540;8.576;2023-03-01T06:07:58;1.00;59.80
16827;DHT22;8530;49.540;8.576;2023-03-01T06:10:25;1.10;59.80
16827;DHT22;8530;49.540;8.576;2023-03-01T06:12:53;1.10;59.90
16827;DHT22;8530;49.540;8.576;2023-03-01T06:15:20;1.10;59.80
16827;DHT22;8530;49.540;8.576;2023-03-01T06:17:47;1.20;59.90
16827;DHT22;8530;49.540;8.576;2023-03-01T06:20:15;1.20;59.80
16827;DHT22;8530;49.540;8.576;2023-03-01T06:22:43;1.30;59.90
16827;DHT22;8530;49.540;8.576;2023-03-01T06:25:14;1.30;60.00
16827;DHT22;8530;49.540;8.576;2023-03-01T06:27:41;1.40;60.00
16827;DHT22;8530;49.540;8.576;2023-03-01T06:30:10;1.50;60.10
16827;DHT22;8530;49.540;8.576;2023-03-01T06:32:37;1.60;60.10
16827;DHT22;8530;49.540;8.576;2023-03-01T06:35:07;1.70;60.10
16827;DHT22;8530;49.540;8.576;2023-03-01T06:37:34;1.70;60.00
16827;DHT22;8530;49.540;8.576;2023-03-01T06:40:01;1.80;59.90
16827;DHT22;8530;49.540;8.576;2023-03-01T06:42:34;1.90;59.70
16827;DHT22;8530;49.540;8.576;2023-03-01T06:45:01;2.00;59.70
16827;DHT22;8530;49.540;8.576;2023-03-01T06:47:28;2.00;59.60
16827;DHT22;8530;49.540;8.576;2023-03-01T06:49:57;2.10;59.60
16827;DHT22;8530;49.540;8.576;2023-03-01T06:52:24;2.20;59.40
16827;DHT22;8530;49.540;8.576;2023-03-01T06:54:50;2.30;59.40
16827;DHT22;8530;49.540;8.576;2023-03-01T06:57:17;2.40;59.30
16827;DHT22;8530;49.540;8.576;2023-03-01T06:59:46;2.50;59.30
16827;DHT22;8530;49.540;8.576;2023-03-01T07:02:14;2.60;59.30
16827;DHT22;8530;49.540;8.576;2023-03-01T07:04:41;2.70;59.20
16827;DHT22;8530;49.540;8.576;2023-03-01T07:07:08;2.80;59.00
16827;DHT22;8530;49.540;8.576;2023-03-01T07:09:35;2.90;58.90
16827;DHT22;8530;49.540;8.576;2023-03-01T07:12:02;3.00;58.90
16827;DHT22;8530;49.540;8.576;2023-03-01T07:14:29;3.00;58.60
16827;DHT22;8530;49.540;8.576;2023-03-01T07:16:57;3.00;58.50
16827;DHT22;8530;49.540;8.576;2023-03-01T07:19:24;3.10;58.40
16827;DHT22;8530;49.540;8.576;2023-03-01T07:21:51;3.10;58.30
16827;DHT22;8530;49.540;8.576;2023-03-01T07:24:17;3.20;58.30
16827;DHT22;8530;49.540;8.576;2023-03-01T07:26:47;3.20;58.10
16827;DHT22;8530;49.540;8.576;2023-03-01T07:29:14;3.20;57.90
16827;DHT22;8530;49.540;8.576;2023-03-01T07:31:40;3.20;57.80
16827;DHT22;8530;49.540;8.576;2023-03-01T07:34:09;3.30;57.70
16827;DHT22;8530;49.540;8.576;2023-03-01T07:36:36;3.40;57.60
16827;DHT22;8530;49.540;8.576;2023-03-01T07:39:03;3.40;57.40
16827;DHT22;8530;49.540;8.576;2023-03-01T07:41:29;3.40;57.40
16827;DHT22;8530;49.540;8.576;2023-03-01T07:43:56;3.50;57.30
16827;DHT22;8530;49.540;8.576;2023-03-01T07:46:23;3.60;57.20
16827;DHT22;8530;49.540;8.576;2023-03-01T07:48:50;3.60;56.90
16827;DHT22;8530;49.540;8.576;2023-03-01T07:51:18;3.70;56.90
16827;DHT22;8530;49.540;8.576;2023-03-01T07:53:45;3.70;56.80
16827;DHT22;8530;49.540;8.576;2023-03-01T07:56:13;3.80;56.80
16827;DHT22;8530;49.540;8.576;2023-03-01T07:58:42;3.90;56.50
16827;DHT22;8530;49.540;8.576;2023-03-01T08:01:10;3.90;56.40
16827;DHT22;8530;49.540;8.576;2023-03-01T08:03:38;4.30;58.40
16827;DHT22;8530;49.540;8.576;2023-03-01T08:06:07;5.10;62.50
16827;DHT22;8530;49.540;8.576;2023-03-01T08:08:36;5.90;64.80
16827;DHT22;8530;49.540;8.576;2023-03-01T08:11:04;6.80;66.70
16827;DHT22;8530;49.540;8.576;2023-03-01T08:13:31;7.70;67.60
16827;DHT22;8530;49.540;8.576;2023-03-01T08:16:01;8.60;67.30
16827;DHT22;8530;49.540;8.576;2023-03-01T08:18:28;9.30;65.60
16827;DHT22;8530;49.540;8.576;2023-03-01T08:20:55;10.30;67.00
16827;DHT22;8530;49.540;8.576;2023-03-01T08:23:21;11.50;66.30
16827;DHT22;8530;49.540;8.576;2023-03-01T08:25:49;12.50;63.40
16827;DHT22;8530;49.540;8.576;2023-03-01T08:28:16;13.50;62.60
16827;DHT22;8530;49.540;8.576;2023-03-01T08:30:43;14.50;60.30
16827;DHT22;8530;49.540;8.576;2023-03-01T08:33:09;15.40;58.00
16827;DHT22;8530;49.540;8.576;2023-03-01T08:35:36;16.00;55.70
16827;DHT22;8530;49.540;8.576;2023-03-01T08:38:03;16.60;54.30
16827;DHT22;8530;49.540;8.576;2023-03-01T08:40:29;17.00;52.00
16827;DHT22;8530;49.540;8.576;2023-03-01T08:42:59;17.40;50.20
16827;DHT22;8530;49.540;8.576;2023-03-01T08:45:25;17.80;47.90
16827;DHT22;8530;49.540;8.576;2023-03-01T08:47:52;18.10;45.50
16827;DHT22;8530;49.540;8.576;2023-03-01T08:50:19;18.00;42.70
16827;DHT22;8530;49.540;8.576;2023-03-01T08:52:46;17.90;41.60
16827;DHT22;8530;49.540;8.576;2023-03-01T08:55:13;17.90;39.90
16827;DHT22;8530;49.540;8.576;2023-03-01T08:57:41;17.70;38.10
16827;DHT22;8530;49.540;8.576;2023-03-01T09:00:11;17.70;37.30
16827;DHT22;8530;49.540;8.576;2023-03-01T09:02:40;17.50;35.70
16827;DHT22;8530;49.540;8.576;2023-03-01T09:05:07;17.30;34.00
16827;DHT22;8530;49.540;8.576;2023-03-01T09:07:34;16.70;31.90
16827;DHT22;8530;49.540;8.576;2023-03-01T09:10:01;15.70;29.60
16827;DHT22;8530;49.540;8.576;2023-03-01T09:12:27;14.30;28.40
16827;DHT22;8530;49.540;8.576;2023-03-01T09:14:54;13.00;28.40
16827;DHT22;8530;49.540;8.576;2023-03-01T09:17:22;11.70;27.50
16827;DHT22;8530;49.540;8.576;2023-03-01T09:19:49;10.60;27.70
16827;DHT22;8530;49.540;8.576;2023-03-01T09:22:16;9.90;28.40
16827;DHT22;8530;49.540;8.576;2023-03-01T09:24:42;9.30;28.50
16827;DHT22;8530;49.540;8.576;2023-03-01T09:27:09;8.80;28.60
16827;DHT22;8530;49.540;8.576;2023-03-01T09:29:38;8.20;28.80
16827;DHT22;8530;49.540;8.576;2023-03-01T09:32:05;7.80;28.80
16827;DHT22;8530;49.540;8.576;2023-03-01T09:34:34;7.70;29.10
16827;DHT22;8530;49.540;8.576;2023-03-01T09:37:22;7.50;29.40
16827;DHT22;8530;49.540;8.576;2023-03-01T09:39:49;7.20;29.50
16827;DHT22;8530;49.540;8.576;2023-03-01T09:42:15;7.10;29.70
16827;DHT22;8530;49.540;8.576;2023-03-01T09:44:48;7.00;29.90
16827;DHT22;8530;49.540;8.576;2023-03-01T09:47:18;7.00;30.10
16827;DHT22;8530;49.540;8.576;2023-03-01T09:49:53;7.00;30.50
16827;DHT22;8530;49.540;8.576;2023-03-01T09:52:28;7.00;30.60
16827;DHT22;8530;49.540;8.576;2023-03-01T09:54:56;7.00;30.80
16827;DHT22;8530;49.540;8.576;2023-03-01T09:57:30;7.00;30.90
16827;DHT22;8530;49.540;8.576;2023-03-01T10:00:18;7.00;30.90
16827;DHT22;8530;49.540;8.576;2023-03-01T10:02:51;7.00;31.10
16827;DHT22;8530;49.540;8.576;2023-03-01T10:05:33;7.10;31.20
16827;DHT22;8530;49.540;8.576;2023-03-01T10:10:49;7.10;31.50
16827;DHT22;8530;49.540;8.576;2023-03-01T10:13:19;7.10;31.80
16827;DHT22;8530;49.540;8.576;2023-03-01T10:15:49;7.10;31.80
16827;DHT22;8530;49.540;8.576;2023-03-01T10:18:22;7.20;32.00
16827;DHT22;8530;49.540;8.576;2023-03-01T10:20:55;7.30;32.10
16827;DHT22;8530;49.540;8.576;2023-03-01T10:23:23;7.40;32.20
16827;DHT22;8530;49.540;8.576;2023-03-01T10:26:05;7.50;32.30
16827;DHT22;8530;49.540;8.576;2023-03-01T10:28:42;7.50;32.50
16827;DHT22;8530;49.540;8.576;2023-03-01T10:31:14;7.60;32.60
16827;DHT22;8530;49.540;8.576;2023-03-01T10:33:42;7.60;32.70
16827;DHT22;8530;49.540;8.576;2023-03-01T10:36:10;7.60;32.70
16827;DHT22;8530;49.540;8.576;2023-03-01T10:38:51;7.70;33.00
16827;DHT22;8530;49.540;8.576;2023-03-01T10:41:19;7.80;33.20
16827;DHT22;8530;49.540;8.576;2023-03-01T10:43:50;7.80;33.20
16827;DHT22;8530;49.540;8.576;2023-03-01T10:46:25;7.90;33.40
16827;DHT22;8530;49.540;8.576;2023-03-01T10:49:07;7.90;33.40
16827;DHT22;8530;49.540;8.576;2023-03-01T10:51:35;8.00;33.40
16827;DHT22;8530;49.540;8.576;2023-03-01T10:54:03;8.10;33.50
16827;DHT22;8530;49.540;8.576;2023-03-01T10:56:46;8.10;33.40
16827;DHT22;8530;49.540;8.576;2023-03-01T10:59:22;8.20;33.50
16827;DHT22;8530;49.540;8.576;2023-03-01T11:02:03;8.30;34.10
16827;DHT22;8530;49.540;8.576;2023-03-01T11:04:31;8.30;33.50
16827;DHT22;8530;49.540;8.576;2023-03-01T11:07:00;8.30;33.50
16827;DHT22;8530;49.540;8.576;2023-03-01T11:09:32;8.40;33.60
16827;DHT22;8530;49.540;8.576;2023-03-01T11:12:04;8.40;33.70
16827;DHT22;8530;49.540;8.576;2023-03-01T11:14:35;8.40;33.70
16827;DHT22;8530;49.540;8.576;2023-03-01T11:17:04;8.50;33.90
16827;DHT22;8530;49.540;8.576;2023-03-01T11:19:32;8.70;34.00
16827;DHT22;8530;49.540;8.576;2023-03-01T11:22:03;8.80;33.90
16827;DHT22;8530;49.540;8.576;2023-03-01T11:24:36;8.90;33.90
16827;DHT22;8530;49.540;8.576;2023-03-01T11:27:08;9.00;34.00
16827;DHT22;8530;49.540;8.576;2023-03-01T11:29:42;8.90;33.90
16827;DHT22;8530;49.540;8.576;2023-03-01T11:32:13;8.90;33.90
16827;DHT22;8530;49.540;8.576;2023-03-01T11:34:44;9.00;34.00
16827;DHT22;8530;49.540;8.576;2023-03-01T11:37:28;9.10;34.10
16827;DHT22;8530;49.540;8.576;2023-03-01T11:40:01;9.20;34.20
16827;DHT22;8530;49.540;8.576;2023-03-01T11:42:38;9.20;34.10
16827;DHT22;8530;49.540;8.576;2023-03-01T11:45:11;9.30;34.00
16827;DHT22;8530;49.540;8.576;2023-03-01T11:47:55;9.30;34.00
16827;DHT22;8530;49.540;8.576;2023-03-01T11:50:32;9.40;34.00
16827;DHT22;8530;49.540;8.576;2023-03-01T11:53:16;9.30;34.10
16827;DHT22;8530;49.540;8.576;2023-03-01T11:56:00;9.40;34.00
16827;DHT22;8530;49.540;8.576;2023-03-01T11:58:58;9.30;33.90
16827;DHT22;8530;49.540;8.576;2023-03-01T12:01:36;9.40;34.10
16827;DHT22;8530;49.540;8.576;2023-03-01T12:07:17;9.40;34.10
16827;DHT22;8530;49.540;8.576;2023-03-01T12:09:58;9.40;34.00
16827;DHT22;8530;49.540;8.576;2023-03-01T12:12:41;9.40;34.00
16827;DHT22;8530;49.540;8.576;2023-03-01T12:15:37;9.50;34.10
16827;DHT22;8530;49.540;8.576;2023-03-01T12:18:30;9.50;33.90
16827;DHT22;8530;49.540;8.576;2023-03-01T12:21:10;9.60;34.00
16827;DHT22;8530;49.540;8.576;2023-03-01T12:24:07;9.60;33.90
16827;DHT22;8530;49.540;8.576;2023-03-01T12:26:43;9.60;33.90
16827;DHT22;8530;49.540;8.576;2023-03-01T12:29:25;9.70;34.00
16827;DHT22;8530;49.540;8.576;2023-03-01T12:32:07;9.80;34.00
16827;DHT22;8530;49.540;8.576;2023-03-01T12:37:51;9.90;34.00
16827;DHT22;8530;49.540;8.576;2023-03-01T12:40:33;10.10;33.10
16827;DHT22;8530;49.540;8.576;2023-03-01T12:43:15;10.10;33.10
16827;DHT22;8530;49.540;8.576;2023-03-01T12:46:06;10.10;33.60
16827;DHT22;8530;49.540;8.576;2023-03-01T12:48:43;10.20;33.00
16827;DHT22;8530;49.540;8.576;2023-03-01T12:51:15;10.30;33.10
16827;DHT22;8530;49.540;8.576;2023-03-01T12:53:46;10.30;32.90
16827;DHT22;8530;49.540;8.576;2023-03-01T12:56:18;10.30;32.60
16827;DHT22;8530;49.540;8.576;2023-03-01T12:58:55;10.30;32.60
16827;DHT22;8530;49.540;8.576;2023-03-01T13:01:33;10.20;32.50
16827;DHT22;8530;49.540;8.576;2023-03-01T13:04:18;10.20;32.40
16827;DHT22;8530;49.540;8.576;2023-03-01T13:07:05;10.10;32.30
16827;DHT22;8530;49.540;8.576;2023-03-01T13:09:40;10.10;32.30
16827;DHT22;8530;49.540;8.576;2023-03-01T13:12:44;10.10;32.30
16827;DHT22;8530;49.540;8.576;2023-03-01T13:15:35;10.20;32.40
16827;DHT22;8530;49.540;8.576;2023-03-01T13:18:04;10.20;32.40
16827;DHT22;8530;49.540;8.576;2023-03-01T13:20:46;10.30;32.30
16827;DHT22;8530;49.540;8.576;2023-03-01T13:23:24;10.40;32.40
16827;DHT22;8530;49.540;8.576;2023-03-01T13:26:08;10.50;32.30
16827;DHT22;8530;49.540;8.576;2023-03-01T13:28:40;10.60;32.30
16827;DHT22;8530;49.540;8.576;2023-03-01T13:31:10;10.60;32.30
16827;DHT22;8530;49.540;8.576;2023-03-01T13:33:44;10.60;32.20
16827;DHT22;8530;49.540;8.576;2023-03-01T13:36:22;10.70;32.10
16827;DHT22;8530;49.540;8.576;2023-03-01T13:39:02;10.80;32.10
16827;DHT22;8530;49.540;8.576;2023-03-01T13:41:48;10.80;32.00
16827;DHT22;8530;49.540;8.576;2023-03-01T13:44:21;10.90;31.90
16827;DHT22;8530;49.540;8.576;2023-03-01T13:46:53;10.80;32.20
16827;DHT22;8530;49.540;8.576;2023-03-01T13:49:22;10.80;31.60
16827;DHT22;8530;49.540;8.576;2023-03-01T13:51:50;10.80;31.60
16827;DHT22;8530;49.540;8.576;2023-03-01T13:54:25;10.80;31.50
16827;DHT22;8530;49.540;8.576;2023-03-01T13:56:53;10.70;31.40
16827;DHT22;8530;49.540;8.576;2023-03-01T13:59:22;10.70;31.50
16827;DHT22;8530;49.540;8.576;2023-03-01T14:01:52;10.80;31.50
16827;DHT22;8530;49.540;8.576;2023-03-01T14:04:21;10.80;31.50
16827;DHT22;8530;49.540;8.576;2023-03-01T14:06:48;10.90;31.50
16827;DHT22;8530;49.540;8.576;2023-03-01T14:09:17;10.90;31.40
16827;DHT22;8530;49.540;8.576;2023-03-01T14:12:11;10.90;31.30
16827;DHT22;8530;49.540;8.576;2023-03-01T14:14:45;10.90;31.20
16827;DHT22;8530;49.540;8.576;2023-03-01T14:17:38;10.90;31.10
16827;DHT22;8530;49.540;8.576;2023-03-01T14:20:14;10.80;31.00
16827;DHT22;8530;49.540;8.576;2023-03-01T14:22:43;10.90;31.20
16827;DHT22;8530;49.540;8.576;2023-03-01T14:25:21;10.90;31.30
16827;DHT22;8530;49.540;8.576;2023-03-01T14:27:56;11.00;31.30
16827;DHT22;8530;49.540;8.576;2023-03-01T14:30:25;10.90;31.00
16827;DHT22;8530;49.540;8.576;2023-03-01T14:32:54;10.90;31.00
16827;DHT22;8530;49.540;8.576;2023-03-01T14:35:23;10.90;31.00
16827;DHT22;8530;49.540;8.576;2023-03-01T14:37:50;10.90;31.00
16827;DHT22;8530;49.540;8.576;2023-03-01T14:40:23;11.00;31.10
16827;DHT22;8530;49.540;8.576;2023-03-01T14:42:50;11.00;31.00
16827;DHT22;8530;49.540;8.576;2023-03-01T14:45:19;11.00;30.90
16827;DHT22;8530;49.540;8.576;2023-03-01T14:47:46;11.00;30.90
16827;DHT22;8530;49.540;8.576;2023-03-01T14:50:23;10.90;30.90
16827;DHT22;8530;49.540;8.576;2023-03-01T14:52:53;10.90;30.90
16827;DHT22;8530;49.540;8.576;2023-03-01T14:55:22;10.80;30.80
16827;DHT22;8530;49.540;8.576;2023-03-01T14:57:52;10.80;30.70
16827;DHT22;8530;49.540;8.576;2023-03-01T15:00:23;10.70;30.70
16827;DHT22;8530;49.540;8.576;2023-03-01T15:02:52;10.70;30.70
16827;DHT22;8530;49.540;8.576;2023-03-01T15:05:25;10.70;30.90
16827;DHT22;8530;49.540;8.576;2023-03-01T15:07:53;10.60;30.80
16827;DHT22;8530;49.540;8.576;2023-03-01T15:10:22;10.60;30.90
16827;DHT22;8530;49.540;8.576;2023-03-01T15:12:50;10.60;30.90
16827;DHT22;8530;49.540;8.576;2023-03-01T15:15:34;10.60;30.90
16827;DHT22;8530;49.540;8.576;2023-03-01T15:18:03;10.50;30.90
16827;DHT22;8530;49.540;8.576;2023-03-01T15:20:32;10.50;30.90
16827;DHT22;8530;49.540;8.576;2023-03-01T15:23:01;10.50;30.90
16827;DHT22;8530;49.540;8.576;2023-03-01T15:25:30;10.40;30.80
16827;DHT22;8530;49.540;8.576;2023-03-01T15:28:00;10.40;30.90
16827;DHT22;8530;49.540;8.576;2023-03-01T15:30:30;10.40;31.00
16827;DHT22;8530;49.540;8.576;2023-03-01T15:33:37;10.30;30.90
16827;DHT22;8530;49.540;8.576;2023-03-01T15:36:36;10.30;30.90
16827;DHT22;8530;49.540;8.576;2023-03-01T15:39:05;10.20;30.90
16827;DHT22;8530;49.540;8.576;2023-03-01T15:41:52;10.10;30.90
16827;DHT22;8530;49.540;8.576;2023-03-01T15:44:26;10.10;31.00
16827;DHT22;8530;49.540;8.576;2023-03-01T15:46:53;10.00;31.00
16827;DHT22;8530;49.540;8.576;2023-03-01T15:49:29;10.00;31.10
16827;DHT22;8530;49.540;8.576;2023-03-01T15:51:58;10.00;31.10
16827;DHT22;8530;49.540;8.576;2023-03-01T15:54:26;9.90;32.00
16827;DHT22;8530;49.540;8.576;2023-03-01T15:56:53;9.90;32.10
16827;DHT22;8530;49.540;8.576;2023-03-01T15:59:20;9.90;32.10
16827;DHT22;8530;49.540;8.576;2023-03-01T16:01:48;9.80;32.10
16827;DHT22;8530;49.540;8.576;2023-03-01T16:04:16;9.80;32.10
16827;DHT22;8530;49.540;8.576;2023-03-01T16:06:50;9.80;32.20
16827;DHT22;8530;49.540;8.576;2023-03-01T16:09:21;9.70;32.20
16827;DHT22;8530;49.540;8.576;2023-03-01T16:11:49;9.70;32.20
16827;DHT22;8530;49.540;8.576;2023-03-01T16:14:17;9.60;32.20
16827;DHT22;8530;49.540;8.576;2023-03-01T16:16:44;9.60;32.30
16827;DHT22;8530;49.540;8.576;2023-03-01T16:19:13;9.60;32.30
16827;DHT22;8530;49.540;8.576;2023-03-01T16:21:42;9.50;32.40
16827;DHT22;8530;49.540;8.576;2023-03-01T16:24:13;9.50;32.50
16827;DHT22;8530;49.540;8.576;2023-03-01T16:26:40;9.40;32.50
16827;DHT22;8530;49.540;8.576;2023-03-01T16:29:07;9.40;32.60